Terminal Aerodrome Forecast
Issued by NWS

Home | Current Version | Previous Version | Text Only | Print | Product List | Glossary On
Versions: 1 2 3 4 5 6 7 8 9 10 11 12 13 14 15 16 17
395
FTUS42 KMLB 271128
TAFLEE
TAF
KLEE 271128Z 2712/2812 23007KT P6SM SCT008 SCT100
     FM271700 32005KT P6SM VCTS BKN035CB BKN060
      TEMPO 2719/2722 3SM TSRA BKN025CB
     FM272300 VRB04KT P6SM VCSH SCT025 BKN070=

USA.gov is the U.S. government's official web portal to all federal, state and local government web resources and services.